createdAt,value
2022-10-23T00:00:55.028Z,100162.00
2022-10-23T00:03:28.541Z,100164.69
2022-10-23T00:06:04.869Z,100158.47
2022-10-23T00:08:38.546Z,100170.16
2022-10-23T00:11:12.190Z,100172.06
2022-10-23T00:13:46.812Z,100169.97
2022-10-23T00:16:21.685Z,100177.28
2022-10-23T00:18:55.193Z,100175.44
2022-10-23T00:21:28.991Z,100185.34
2022-10-23T00:24:02.547Z,100182.66
2022-10-23T00:26:35.880Z,100188.00
2022-10-23T00:29:10.254Z,100189.44
2022-10-23T00:31:45.147Z,100194.81
2022-10-23T00:34:19.599Z,100201.91
2022-10-23T00:36:53.017Z,100195.69
2022-10-23T00:39:26.549Z,100199.13
2022-10-23T00:42:00.023Z,100200.00
2022-10-23T00:45:13.931Z,100192.72
2022-10-23T00:47:49.180Z,100204.41
2022-10-23T00:50:26.551Z,100200.00
2022-10-23T00:53:03.464Z,100203.56
2022-10-23T00:55:38.449Z,100208.06
2022-10-23T00:58:12.396Z,100214.31
2022-10-23T01:00:48.269Z,100211.53
2022-10-23T01:03:26.780Z,100208.69
2022-10-23T01:06:10.556Z,100216.78
2022-10-23T01:08:53.686Z,100215.81
2022-10-23T01:11:34.975Z,100223.03
2022-10-23T01:14:25.724Z,100220.19
2022-10-23T01:17:18.739Z,100224.56
2022-10-23T01:20:12.505Z,100214.59
2022-10-23T01:23:24.617Z,100227.94
2022-10-23T01:26:12.274Z,100221.03
2022-10-23T01:28:54.767Z,100219.28
2022-10-23T01:31:35.100Z,100226.41
2022-10-23T01:34:14.963Z,100218.34
2022-10-23T01:36:53.729Z,100225.47
2022-10-23T01:39:34.077Z,100227.25
2022-10-23T01:42:14.289Z,100224.56
2022-10-23T01:44:55.135Z,100228.31
2022-10-23T01:47:32.570Z,100240.00
2022-10-23T01:50:14.984Z,100232.25
2022-10-23T01:52:51.899Z,100240.41
2022-10-23T01:55:27.451Z,100236.00
2022-10-23T01:58:04.011Z,100239.84
2022-10-23T02:00:54.131Z,100235.69
2022-10-23T02:03:30.513Z,100241.56
2022-10-23T02:06:06.166Z,100241.69
2022-10-23T02:08:42.700Z,100239.66
2022-10-23T02:11:18.639Z,100252.72
2022-10-23T02:13:59.256Z,100253.09
2022-10-23T02:16:39.931Z,100248.09
2022-10-23T02:19:22.649Z,100244.94
2022-10-23T02:22:03.198Z,100251.53
2022-10-23T02:24:44.044Z,100248.06
2022-10-23T02:27:25.527Z,100240.22
2022-10-23T02:30:12.957Z,100241.84
2022-10-23T02:32:50.578Z,100247.97
2022-10-23T02:35:27.717Z,100250.56
2022-10-23T02:38:31.543Z,100251.25
2022-10-23T02:41:47.521Z,100256.44
2022-10-23T02:44:38.676Z,100253.75
2022-10-23T02:47:22.837Z,100259.09
2022-10-23T02:50:08.536Z,100259.09
2022-10-23T02:52:54.974Z,100261.69
2022-10-23T02:55:46.202Z,100264.19
2022-10-23T02:58:28.025Z,100266.03
2022-10-23T03:01:12.966Z,100265.16
2022-10-23T03:03:49.956Z,100268.91
2022-10-23T03:06:28.118Z,100268.13
2022-10-23T03:09:13.839Z,100271.09
2022-10-23T03:11:47.535Z,100280.19
2022-10-23T03:14:21.149Z,100283.06
2022-10-23T03:16:58.439Z,100282.22
2022-10-23T03:19:32.669Z,100291.22
2022-10-23T03:22:10.840Z,100291.41
2022-10-23T03:24:44.509Z,100296.75
2022-10-23T03:27:17.681Z,100290.84
2022-10-23T03:29:51.120Z,100290.72
2022-10-23T03:32:25.682Z,100291.75
2022-10-23T03:34:59.090Z,100300.78
2022-10-23T03:37:34.144Z,100303.66
2022-10-23T03:40:09.548Z,100309.88
2022-10-23T03:42:43.051Z,100301.81
2022-10-23T03:45:19.718Z,100298.19
2022-10-23T03:47:54.554Z,100307.88
2022-10-23T03:50:27.993Z,100313.06
2022-10-23T03:53:04.505Z,100307.50
2022-10-23T03:55:40.412Z,100312.00
2022-10-23T03:58:13.932Z,100311.94
2022-10-23T04:00:47.427Z,100308.28
2022-10-23T04:03:20.927Z,100302.91
2022-10-23T04:05:54.358Z,100309.16
2022-10-23T04:08:33.305Z,100311.66
2022-10-23T04:11:09.240Z,100312.41
2022-10-23T04:13:50.954Z,100310.50
2022-10-23T04:16:25.353Z,100312.16
2022-10-23T04:19:01.427Z,100312.06
2022-10-23T04:21:43.475Z,100314.66
2022-10-23T04:24:20.047Z,100319.13
2022-10-23T04:26:53.649Z,100315.59
2022-10-23T04:29:29.559Z,100319.25
2022-10-23T04:32:03.682Z,100320.97
2022-10-23T04:34:37.193Z,100322.69
2022-10-23T04:37:10.594Z,100321.97
2022-10-23T04:39:46.351Z,100318.00
2022-10-23T04:42:20.993Z,100313.56
2022-10-23T04:44:54.274Z,100322.63
2022-10-23T04:47:27.780Z,100316.06
2022-10-23T04:50:05.078Z,100323.28
2022-10-23T04:52:57.774Z,100326.81
2022-10-23T04:55:32.735Z,100336.81
2022-10-23T04:58:22.292Z,100332.38
2022-10-23T05:00:57.844Z,100335.06
2022-10-23T05:03:32.814Z,100334.22
2022-10-23T05:06:07.067Z,100336.81
2022-10-23T05:08:49.678Z,100337.75
2022-10-23T05:11:27.656Z,100337.56
2022-10-23T05:14:01.310Z,100336.53
2022-10-23T05:16:41.048Z,100328.19
2022-10-23T05:19:24.443Z,100341.53
2022-10-23T05:21:59.061Z,100339.69
2022-10-23T05:24:38.163Z,100343.25
2022-10-23T05:27:13.092Z,100346.72
2022-10-23T05:29:48.096Z,100340.38
2022-10-23T05:32:27.407Z,100342.97
2022-10-23T05:35:02.947Z,100341.84
2022-10-23T05:37:39.769Z,100344.44
2022-10-23T05:40:19.027Z,100338.97
2022-10-23T05:42:54.758Z,100343.25
2022-10-23T05:45:38.079Z,100345.84
2022-10-23T05:48:34.809Z,100351.22
2022-10-23T05:51:27.504Z,100349.44
2022-10-23T05:54:21.183Z,100350.09
2022-10-23T05:57:02.895Z,100349.16
2022-10-23T05:59:42.808Z,100345.47
2022-10-23T06:02:28.764Z,100347.13
2022-10-23T06:05:14.078Z,100346.19
2022-10-23T06:08:08.800Z,100346.19
2022-10-23T06:10:43.286Z,100350.56
2022-10-23T06:13:18.300Z,100355.84
2022-10-23T06:15:53.126Z,100352.31
2022-10-23T06:18:29.189Z,100363.63
2022-10-23T06:21:08.367Z,100359.13
2022-10-23T06:23:43.325Z,100367.19
2022-10-23T06:26:22.646Z,100366.22
2022-10-23T06:29:06.930Z,100364.41
2022-10-23T06:31:41.600Z,100363.66
2022-10-23T06:34:15.551Z,100362.22
2022-10-23T06:36:49.044Z,100362.13
2022-10-23T06:39:41.931Z,100364.59
2022-10-23T06:42:21.539Z,100366.19
2022-10-23T06:45:04.763Z,100370.41
2022-10-23T06:47:48.273Z,100361.09
2022-10-23T06:50:42.713Z,100366.19
2022-10-23T06:53:24.874Z,100363.19
2022-10-23T06:56:09.368Z,100361.28
2022-10-23T06:58:43.975Z,100353.78
2022-10-23T07:01:21.338Z,100355.31
2022-10-23T07:03:56.443Z,100362.13
2022-10-23T07:06:32.816Z,100360.28
2022-10-23T07:09:06.316Z,100359.56
2022-10-23T07:12:00.633Z,100362.34
2022-10-23T07:14:43.649Z,100361.06
2022-10-23T07:17:17.473Z,100360.47
2022-10-23T07:19:52.684Z,100359.44
2022-10-23T07:22:26.457Z,100362.75
2022-10-23T07:25:14.029Z,100356.97
2022-10-23T07:27:47.403Z,100358.75
2022-10-23T07:30:21.086Z,100360.34
2022-10-23T07:33:00.941Z,100358.41
2022-10-23T07:36:02.245Z,100354.13
2022-10-23T07:38:36.588Z,100355.03
2022-10-23T07:41:12.712Z,100355.75
2022-10-23T07:43:46.461Z,100359.47
2022-10-23T07:46:20.799Z,100353.84
2022-10-23T07:48:54.857Z,100361.38
2022-10-23T07:51:29.937Z,100351.81
2022-10-23T07:54:06.736Z,100362.72
2022-10-23T07:57:15.033Z,100353.88
2022-10-23T08:00:01.676Z,100354.75
2022-10-23T08:02:36.626Z,100357.22
2022-10-23T08:05:10.752Z,100357.75
2022-10-23T08:07:54.711Z,100353.03
2022-10-23T08:10:29.204Z,100348.63
2022-10-23T08:13:03.045Z,100341.47
2022-10-23T08:16:09.740Z,100353.56
2022-10-23T08:19:02.611Z,100345.69
2022-10-23T08:21:36.553Z,100352.16
2022-10-23T08:24:14.119Z,100362.72
2022-10-23T08:26:51.241Z,100365.22
2022-10-23T08:29:28.332Z,100367.03
2022-10-23T08:32:01.607Z,100361.13
2022-10-23T08:34:45.082Z,100357.13
2022-10-23T08:37:18.461Z,100353.91
2022-10-23T08:39:55.008Z,100362.63
2022-10-23T08:42:59.117Z,100358.44
2022-10-23T08:45:37.880Z,100367.25
2022-10-23T08:48:25.278Z,100375.25
2022-10-23T08:51:23.317Z,100373.63
2022-10-23T08:54:04.423Z,100368.31
2022-10-23T08:56:42.477Z,100369.97
2022-10-23T08:59:26.444Z,100373.09
2022-10-23T09:02:04.063Z,100370.91
2022-10-23T09:04:40.722Z,100370.50
2022-10-23T09:07:26.749Z,100369.53
2022-10-23T09:10:13.558Z,100370.78
2022-10-23T09:12:48.743Z,100366.91
2022-10-23T09:15:29.612Z,100376.22
2022-10-23T09:18:12.706Z,100387.13
2022-10-23T09:20:47.789Z,100393.09
2022-10-23T09:23:23.475Z,100393.75
2022-10-23T09:25:57.263Z,100399.47
2022-10-23T09:28:33.912Z,100401.88
2022-10-23T09:31:09.082Z,100407.94
2022-10-23T09:33:42.890Z,100413.97
2022-10-23T09:36:23.615Z,100420.03
2022-10-23T09:38:59.799Z,100409.75
2022-10-23T09:41:38.567Z,100409.44
2022-10-23T09:44:21.224Z,100410.50
2022-10-23T09:46:57.118Z,100409.97
2022-10-23T09:49:32.554Z,100411.94
2022-10-23T09:52:23.411Z,100411.16
2022-10-23T09:54:59.770Z,100408.56
2022-10-23T09:57:38.472Z,100402.53
2022-10-23T10:00:22.262Z,100404.47
2022-10-23T10:03:03.169Z,100405.31
2022-10-23T10:06:22.523Z,100407.06
2022-10-23T10:09:02.204Z,100413.31
2022-10-23T10:11:42.871Z,100406.53
2022-10-23T10:15:00.402Z,100401.25
2022-10-23T10:17:45.186Z,100403.94
2022-10-23T10:20:50.819Z,100407.38
2022-10-23T10:23:34.749Z,100395.97
2022-10-23T10:26:26.778Z,100403.28
2022-10-23T10:29:14.947Z,100410.84
2022-10-23T10:32:00.562Z,100411.94
2022-10-23T10:34:52.883Z,100405.75
2022-10-23T10:37:32.828Z,100402.22
2022-10-23T10:40:15.633Z,100410.28
2022-10-23T10:43:14.703Z,100399.63
2022-10-23T10:45:56.164Z,100398.88
2022-10-23T10:48:45.160Z,100394.00
2022-10-23T10:51:31.902Z,100392.84
2022-10-23T10:54:17.988Z,100387.56
2022-10-23T10:56:55.804Z,100385.41
2022-10-23T10:59:33.076Z,100384.72
2022-10-23T11:02:21.128Z,100378.16
2022-10-23T11:05:02.201Z,100372.50
2022-10-23T11:07:43.753Z,100373.56
2022-10-23T11:10:19.560Z,100368.94
2022-10-23T11:12:55.056Z,100363.59
2022-10-23T11:15:37.733Z,100355.81
2022-10-23T11:18:22.195Z,100359.19
2022-10-23T11:21:27.850Z,100361.44
2022-10-23T11:24:49.080Z,100362.75
2022-10-23T11:27:41.469Z,100360.66
2022-10-23T11:30:30.094Z,100365.50
2022-10-23T11:33:46.785Z,100367.97
2022-10-23T11:36:41.307Z,100364.47
2022-10-23T11:39:21.328Z,100374.63
2022-10-23T11:41:58.513Z,100367.38
2022-10-23T11:44:44.179Z,100368.88
2022-10-23T11:47:39.657Z,100367.06
2022-10-23T11:50:25.059Z,100360.44
2022-10-23T11:53:24.411Z,100363.38
2022-10-23T11:56:04.459Z,100362.72
2022-10-23T11:58:48.505Z,100364.50
2022-10-23T12:01:32.491Z,100361.78
2022-10-23T12:04:22.423Z,100357.09
2022-10-23T12:07:04.205Z,100363.06
2022-10-23T12:09:42.347Z,100358.75
2022-10-23T12:12:25.359Z,100349.84
2022-10-23T12:15:20.201Z,100354.56
2022-10-23T12:17:58.811Z,100359.63
2022-10-23T12:20:53.146Z,100345.66
2022-10-23T12:24:01.725Z,100352.81
2022-10-23T12:26:50.936Z,100363.03
2022-10-23T12:29:42.204Z,100352.16
2022-10-23T12:32:34.603Z,100361.53
2022-10-23T12:35:26.005Z,100360.34
2022-10-23T12:38:13.870Z,100359.06
2022-10-23T12:40:54.148Z,100358.63
2022-10-23T12:43:30.423Z,100364.47
2022-10-23T12:46:26.495Z,100360.03
2022-10-23T12:49:05.156Z,100357.53
2022-10-23T12:51:38.683Z,100353.16
2022-10-23T12:54:17.497Z,100353.34
2022-10-23T12:56:55.426Z,100350.13
2022-10-23T12:59:34.779Z,100344.41
2022-10-23T13:02:15.705Z,100345.91
2022-10-23T13:04:52.264Z,100342.97
2022-10-23T13:07:32.732Z,100339.00
2022-10-23T13:10:15.360Z,100335.94
2022-10-23T13:12:59.840Z,100342.53
2022-10-23T13:15:39.991Z,100338.09
2022-10-23T13:18:15.621Z,100344.16
2022-10-23T13:23:35.393Z,100338.09
2022-10-23T13:26:28.685Z,100332.28
2022-10-23T13:29:07.516Z,100333.78
2022-10-23T13:31:43.325Z,100341.91
2022-10-23T13:34:25.186Z,100330.59
2022-10-23T13:37:04.431Z,100331.78
2022-10-23T13:39:37.939Z,100339.16
2022-10-23T13:42:14.922Z,100338.50
2022-10-23T13:44:51.912Z,100339.19
2022-10-23T13:47:25.433Z,100343.00
2022-10-23T13:49:58.513Z,100337.41
2022-10-23T13:52:33.380Z,100336.59
2022-10-23T13:55:18.774Z,100324.94
2022-10-23T13:57:52.365Z,100325.69
2022-10-23T14:00:25.500Z,100332.97
2022-10-23T14:02:59.070Z,100329.50
2022-10-23T14:05:32.220Z,100329.88
2022-10-23T14:08:07.641Z,100327.16
2022-10-23T14:10:41.071Z,100332.31
2022-10-23T14:13:14.762Z,100329.38
2022-10-23T14:15:54.884Z,100320.28
2022-10-23T14:18:30.715Z,100316.84
2022-10-23T14:21:05.985Z,100313.28
2022-10-23T14:23:42.617Z,100318.06
2022-10-23T14:26:19.980Z,100315.72
2022-10-23T14:29:02.305Z,100316.28
2022-10-23T14:31:50.353Z,100316.00
2022-10-23T14:34:27.725Z,100310.94
2022-10-23T14:37:09.257Z,100306.53
2022-10-23T14:39:50.654Z,100305.78
2022-10-23T14:42:24.628Z,100305.78
2022-10-23T14:45:03.539Z,100300.50
2022-10-23T14:47:37.213Z,100303.19
2022-10-23T14:50:20.476Z,100297.06
2022-10-23T14:52:54.755Z,100296.19
2022-10-23T14:55:35.906Z,100297.19
2022-10-23T14:58:09.941Z,100300.09
2022-10-23T15:00:43.612Z,100297.88
2022-10-23T15:03:23.004Z,100288.59
2022-10-23T15:05:57.338Z,100287.47
2022-10-23T15:08:34.344Z,100283.00
2022-10-23T15:11:12.646Z,100278.59
2022-10-23T15:13:46.401Z,100281.13
2022-10-23T15:16:25.341Z,100284.72
2022-10-23T15:18:59.424Z,100292.06
2022-10-23T15:21:33.139Z,100291.13
2022-10-23T15:24:06.530Z,100292.09
2022-10-23T15:26:43.393Z,100290.84
2022-10-23T15:29:17.827Z,100297.94
2022-10-23T15:31:55.236Z,100299.78
2022-10-23T15:34:30.605Z,100301.47
2022-10-23T15:37:12.478Z,100307.63
2022-10-23T15:39:46.471Z,100304.81
2022-10-23T15:42:21.486Z,100301.81
2022-10-23T15:44:57.857Z,100309.47
2022-10-23T15:47:31.542Z,100310.94
2022-10-23T15:50:05.702Z,100310.59
2022-10-23T15:52:41.552Z,100311.00
2022-10-23T15:55:15.421Z,100312.38
2022-10-23T15:57:50.070Z,100312.06
2022-10-23T16:00:23.755Z,100314.16
2022-10-23T16:03:06.220Z,100319.06
2022-10-23T16:05:45.612Z,100316.88
2022-10-23T16:08:19.406Z,100308.25
2022-10-23T16:10:53.522Z,100310.25
2022-10-23T16:13:29.007Z,100315.72
2022-10-23T16:16:05.528Z,100311.25
2022-10-23T16:18:39.653Z,100312.94
2022-10-23T16:21:19.973Z,100313.84
2022-10-23T16:23:58.591Z,100314.59
2022-10-23T16:26:32.458Z,100319.88
2022-10-23T16:29:09.795Z,100320.63
2022-10-23T16:31:43.827Z,100317.94
2022-10-23T16:34:17.956Z,100318.81
2022-10-23T16:36:51.651Z,100316.22
2022-10-23T16:39:44.944Z,100322.56
2022-10-23T16:42:58.514Z,100331.78
2022-10-23T16:45:40.210Z,100325.63
2022-10-23T16:48:13.700Z,100331.00
2022-10-23T16:50:47.130Z,100339.19
2022-10-23T16:53:23.294Z,100339.19
2022-10-23T16:56:01.053Z,100331.22
2022-10-23T16:58:35.442Z,100331.22
2022-10-23T17:01:12.625Z,100338.53
2022-10-23T17:03:48.468Z,100339.47
2022-10-23T17:06:23.706Z,100347.63
2022-10-23T17:08:58.189Z,100344.94
2022-10-23T17:11:58.702Z,100338.72
2022-10-23T17:17:46.991Z,100349.47
2022-10-23T17:20:23.353Z,100347.81
2022-10-23T17:22:58.137Z,100347.81
2022-10-23T17:25:34.285Z,100342.44
2022-10-23T17:28:11.367Z,100351.41
2022-10-23T17:30:47.844Z,100350.59
2022-10-23T17:33:28.409Z,100347.06
2022-10-23T17:36:07.004Z,100343.81
2022-10-23T17:38:41.834Z,100335.09
2022-10-23T17:41:21.549Z,100332.41
2022-10-23T17:44:00.255Z,100329.91
2022-10-23T17:46:34.045Z,100330.09
2022-10-23T17:49:12.661Z,100320.53
2022-10-23T17:51:46.438Z,100319.97
2022-10-23T17:54:19.799Z,100323.16
2022-10-23T17:56:57.546Z,100317.75
2022-10-23T17:59:35.437Z,100317.28
2022-10-23T18:02:09.898Z,100326.59
2022-10-23T18:04:45.259Z,100320.63
2022-10-23T18:07:20.192Z,100332.41
2022-10-23T18:10:06.027Z,100329.72
2022-10-23T18:12:42.384Z,100332.81
2022-10-23T18:15:16.924Z,100332.13
2022-10-23T18:17:50.454Z,100329.72
2022-10-23T18:20:29.139Z,100332.72
2022-10-23T18:23:05.301Z,100336.53
2022-10-23T18:25:46.139Z,100336.72
2022-10-23T18:28:22.032Z,100333.34
2022-10-23T18:30:57.187Z,100330.84
2022-10-23T18:33:31.099Z,100324.00
2022-10-23T18:36:14.229Z,100325.00
2022-10-23T18:38:48.723Z,100335.13
2022-10-23T18:41:28.306Z,100329.94
2022-10-23T18:44:02.014Z,100326.66
2022-10-23T18:46:35.857Z,100331.44
2022-10-23T18:49:09.485Z,100334.38
2022-10-23T18:51:44.610Z,100325.56
2022-10-23T18:54:21.196Z,100326.59
2022-10-23T18:56:54.827Z,100323.25
2022-10-23T18:59:28.095Z,100335.25
2022-10-23T19:02:01.958Z,100329.66
2022-10-23T19:04:36.519Z,100330.78
2022-10-23T19:07:22.253Z,100328.38
2022-10-23T19:09:57.042Z,100317.81
2022-10-23T19:12:30.645Z,100315.31
2022-10-23T19:15:04.350Z,100319.91
2022-10-23T19:17:40.046Z,100316.69
2022-10-23T19:20:20.251Z,100323.69
2022-10-23T19:22:56.860Z,100324.91
2022-10-23T19:25:34.173Z,100320.66
2022-10-23T19:28:07.723Z,100318.06
2022-10-23T19:30:47.080Z,100319.91
2022-10-23T19:33:24.738Z,100307.69
2022-10-23T19:36:01.220Z,100310.47
2022-10-23T19:38:40.456Z,100314.19
2022-10-23T19:41:18.502Z,100309.00
2022-10-23T19:43:51.926Z,100307.44
2022-10-23T19:46:26.165Z,100299.56
2022-10-23T19:48:59.656Z,100304.25
2022-10-23T19:51:33.514Z,100296.38
2022-10-23T19:54:09.948Z,100289.44
2022-10-23T19:56:43.429Z,100291.44
2022-10-23T19:59:17.028Z,100293.44
2022-10-23T20:01:50.827Z,100297.13
2022-10-23T20:04:24.413Z,100287.56
2022-10-23T20:07:01.011Z,100291.34
2022-10-23T20:09:36.170Z,100292.56
2022-10-23T20:12:09.909Z,100291.84
2022-10-23T20:14:43.000Z,100294.09
2022-10-23T20:17:19.031Z,100293.16
2022-10-23T20:19:53.470Z,100287.19
2022-10-23T20:22:28.391Z,100279.31
2022-10-23T20:25:06.345Z,100279.41
2022-10-23T20:27:42.883Z,100274.13
2022-10-23T20:30:18.977Z,100265.28
2022-10-23T20:32:52.470Z,100270.84
2022-10-23T20:35:25.902Z,100270.03
2022-10-23T20:37:59.398Z,100264.84
2022-10-23T20:40:34.311Z,100263.22
2022-10-23T20:43:07.799Z,100261.56
2022-10-23T20:45:41.299Z,100266.06
2022-10-23T20:48:14.697Z,100261.63
2022-10-23T20:50:48.124Z,100251.00
2022-10-23T20:53:21.538Z,100249.25
2022-10-23T20:55:56.486Z,100253.84
2022-10-23T20:58:29.942Z,100244.09
2022-10-23T21:01:04.992Z,100243.22
2022-10-23T21:03:38.921Z,100244.19
2022-10-23T21:06:14.541Z,100241.50
2022-10-23T21:08:48.480Z,100245.91
2022-10-23T21:11:23.409Z,100250.41
2022-10-23T21:13:59.983Z,100240.53
2022-10-23T21:16:35.638Z,100244.97
2022-10-23T21:19:10.247Z,100248.56
2022-10-23T21:21:43.913Z,100243.22
2022-10-23T21:24:17.775Z,100243.41
2022-10-23T21:26:52.653Z,100247.56
2022-10-23T21:29:28.829Z,100254.81
2022-10-23T21:32:02.742Z,100245.22
2022-10-23T21:34:36.653Z,100240.88
2022-10-23T21:37:14.531Z,100242.78
2022-10-23T21:39:48.420Z,100243.78
2022-10-23T21:42:23.509Z,100249.25
2022-10-23T21:44:57.015Z,100236.88
2022-10-23T21:47:30.429Z,100234.28
2022-10-23T21:50:04.099Z,100226.34
2022-10-23T21:52:37.606Z,100228.44
2022-10-23T21:55:11.933Z,100238.88
2022-10-23T21:57:46.972Z,100235.38
2022-10-23T22:00:20.529Z,100237.13
2022-10-23T22:02:56.839Z,100230.91
2022-10-23T22:05:30.253Z,100236.19
2022-10-23T22:08:03.677Z,100239.72
2022-10-23T22:10:37.164Z,100238.88
2022-10-23T22:13:12.025Z,100242.41
2022-10-23T22:18:24.330Z,100222.81
2022-10-23T22:21:04.338Z,100218.31
2022-10-23T22:23:38.368Z,100226.25
2022-10-23T22:26:23.245Z,100219.00
2022-10-23T22:29:00.243Z,100223.41
2022-10-23T22:31:35.073Z,100226.94
2022-10-23T22:34:25.118Z,100220.75
2022-10-23T22:37:02.821Z,100218.91
2022-10-23T22:40:04.880Z,100217.03
2022-10-23T22:42:41.189Z,100210.72
2022-10-23T22:45:15.996Z,100207.38
2022-10-23T22:47:49.568Z,100204.34
2022-10-23T22:50:26.008Z,100198.09
2022-10-23T22:52:59.498Z,100193.72
2022-10-23T22:55:33.063Z,100183.09
2022-10-23T22:58:09.676Z,100177.81
2022-10-23T23:00:45.000Z,100185.00
2022-10-23T23:03:18.777Z,100185.09
2022-10-23T23:05:52.033Z,100177.50
2022-10-23T23:08:25.970Z,100179.00
2022-10-23T23:11:02.129Z,100174.72
2022-10-23T23:13:36.296Z,100171.22
2022-10-23T23:16:20.403Z,100173.91
2022-10-23T23:18:53.823Z,100173.31
2022-10-23T23:21:30.505Z,100176.50
2022-10-23T23:24:06.578Z,100177.38
2022-10-23T23:26:40.064Z,100182.75
2022-10-23T23:29:14.168Z,100180.91
2022-10-23T23:31:49.160Z,100186.28
2022-10-23T23:34:22.857Z,100194.31
2022-10-23T23:36:56.449Z,100192.56
2022-10-23T23:39:30.133Z,100200.69
2022-10-23T23:42:06.173Z,100190.84
2022-10-23T23:44:50.212Z,100192.72
2022-10-23T23:47:35.187Z,100187.53
2022-10-23T23:50:11.523Z,100186.69
2022-10-23T23:52:48.408Z,100189.50
2022-10-23T23:55:21.991Z,100186.88
2022-10-23T23:58:05.697Z,100178.94
